Time;durP1;ratioP1;P1;durP2;ratioP2;P2;SDS_P1;SDS_P2;PMS_P1;PMS_P2;Temp;Humidity;BMP_temperature;BMP_pressure;BME280_temperature;BME280_humidity;BME280_pressure;Samples;Min_cycle;Max_cycle;Signal;HPM_P1;HPM_P2
2023/04/02 00:01:00;;;;;;;5.93;1.80;;;2.30;99.90;1.40;99865;;;;600398;236;24044;-76
2023/04/02 00:03:44;;;;;;;2.63;1.87;;;2.20;99.90;1.40;99858;;;;600398;234;24113;-77
2023/04/02 00:06:31;;;;;;;4.93;2.07;;;2.30;99.90;1.40;99866;;;;596557;236;24126;-77
2023/04/02 00:09:03;;;;;;;6.53;2.10;;;2.30;99.90;1.40;99864;;;;600082;236;24132;-77
2023/04/02 00:11:34;;;;;;;3.67;1.47;;;2.30;99.90;1.40;99854;;;;605848;233;24028;-77
2023/04/02 00:14:02;;;;;;;4.13;2.03;;;2.40;99.90;1.50;99860;;;;605960;233;24101;-80
2023/04/02 00:16:30;;;;;;;2.17;1.57;;;2.40;99.90;1.40;99869;;;;596226;236;25112;-77
2023/04/02 00:19:01;;;;;;;1.77;1.30;;;2.40;99.90;1.50;99874;;;;605727;236;24032;-78
2023/04/02 00:21:31;;;;;;;8.43;2.10;;;2.40;99.90;1.60;99887;;;;605649;236;24088;-77
2023/04/02 00:23:59;;;;;;;2.00;0.67;;;2.50;99.90;1.50;99879;;;;606141;236;24092;-76
2023/04/02 00:26:42;;;;;;;1.00;1.00;;;2.50;99.90;1.50;99897;;;;606095;233;24101;-76
2023/04/02 00:29:11;;;;;;;3.50;1.10;;;2.50;99.90;1.50;99897;;;;596804;236;24036;-78
2023/04/02 00:31:39;;;;;;;2.30;1.23;;;2.50;99.90;1.50;99888;;;;607046;235;24113;-77
2023/04/02 00:34:07;;;;;;;1.60;1.13;;;2.50;99.90;1.40;99935;;;;607423;236;24063;-79
2023/04/02 00:36:35;;;;;;;0.80;0.80;;;2.40;99.90;1.20;99907;;;;597621;236;24105;-79
2023/04/02 00:39:03;;;;;;;2.40;1.07;;;2.20;99.90;0.90;99935;;;;596146;236;24041;-78
2023/04/02 00:41:35;;;;;;;3.80;1.53;;;1.70;99.90;0.70;99910;;;;606437;236;24037;-80
2023/04/02 00:44:00;;;;;;;3.30;1.63;;;1.70;99.90;0.50;99917;;;;597270;236;24082;-78
2023/04/02 00:46:28;;;;;;;5.07;2.33;;;1.40;99.90;0.50;99900;;;;606766;236;24031;-78
2023/04/02 00:49:11;;;;;;;2.80;1.87;;;1.40;99.90;0.50;99898;;;;607744;236;24069;-79
2023/04/02 00:51:40;;;;;;;6.97;1.90;;;1.30;99.90;0.30;99905;;;;605935;236;24100;-76
2023/04/02 00:54:07;;;;;;;4.77;2.20;;;1.30;99.90;0.30;99904;;;;606114;236;24071;-77
2023/04/02 00:56:41;;;;;;;4.60;2.13;;;1.20;99.90;0.30;99909;;;;606314;236;25070;-76
2023/04/02 00:59:18;;;;;;;4.43;1.53;;;1.20;99.90;0.30;99902;;;;606089;236;24112;-75
2023/04/02 01:01:46;;;;;;;5.57;1.90;;;1.20;99.90;0.40;99909;;;;605801;236;25146;-79
2023/04/02 01:04:26;;;;;;;1.53;1.43;;;1.30;99.90;0.40;99908;;;;605682;236;24088;-76
2023/04/02 01:06:56;;;;;;;1.83;1.60;;;1.30;99.90;0.40;99905;;;;605964;236;25076;-77
2023/04/02 01:09:27;;;;;;;5.12;2.05;;;1.30;99.90;0.50;99915;;;;591091;236;34904;-79
2023/04/02 01:12:25;;;;;;;3.87;1.53;;;1.30;99.90;0.50;99913;;;;595644;236;24065;-77
2023/04/02 01:15:18;;;;;;;3.30;1.80;;;1.40;99.90;0.60;99923;;;;595904;236;24065;-76
2023/04/02 01:18:08;;;;;;;2.20;1.67;;;1.40;99.90;0.60;99922;;;;602642;236;24124;-81
2023/04/02 01:21:00;;;;;;;2.90;1.27;;;1.50;99.90;0.60;99919;;;;596762;236;24021;-80
2023/04/02 01:23:30;;;;;;;3.00;1.67;;;1.50;99.90;0.60;99932;;;;605155;236;24056;-82
2023/04/02 01:26:06;;;;;;;3.23;1.50;;;1.50;99.90;0.60;99923;;;;595901;236;24050;-82
2023/04/02 01:28:59;;;;;;;3.90;1.60;;;1.50;99.90;0.70;99929;;;;596842;236;24036;-80
2023/04/02 01:31:27;;;;;;;7.40;1.80;;;1.60;99.90;0.70;99932;;;;606228;236;24093;-82
2023/04/02 01:33:55;;;;;;;5.57;2.63;;;1.60;99.90;0.80;99931;;;;606336;236;24079;-82
2023/04/02 01:36:26;;;;;;;2.40;1.73;;;1.70;99.90;0.80;99931;;;;596840;236;24010;-81
2023/04/02 01:39:21;;;;;;;3.40;1.80;;;1.80;99.90;0.90;99950;;;;605331;236;24041;-80
2023/04/02 01:42:04;;;;;;;3.40;1.40;;;1.70;99.90;0.80;99944;;;;596228;236;24041;-79
2023/04/02 01:44:42;;;;;;;4.10;1.60;;;1.80;99.90;0.90;99945;;;;609022;234;24095;-77
2023/04/02 01:47:07;;;;;;;5.83;1.73;;;1.70;99.90;0.90;99961;;;;597151;236;24040;-77
2023/04/02 01:49:38;;;;;;;1.63;1.40;;;1.90;99.90;1.00;99955;;;;606718;236;24032;-77
2023/04/02 01:52:03;;;;;;;4.57;1.93;;;1.80;99.90;1.00;99961;;;;597288;236;24090;-77
2023/04/02 01:54:31;;;;;;;1.60;1.50;;;1.90;99.90;1.10;99968;;;;597305;236;24073;-77
2023/04/02 01:56:58;;;;;;;3.17;1.50;;;2.00;99.90;1.10;99977;;;;597341;236;24069;-78
2023/04/02 01:59:29;;;;;;;3.30;1.10;;;2.00;99.90;1.10;99961;;;;597354;236;24017;-79
2023/04/02 02:02:01;;;;;;;2.40;1.27;;;2.00;99.90;1.10;99984;;;;596907;236;24032;-76
2023/04/02 02:04:29;;;;;;;4.40;1.27;;;2.00;99.90;1.10;99982;;;;606290;236;24069;-76
2023/04/02 02:07:01;;;;;;;4.33;1.43;;;2.00;99.90;1.10;99979;;;;597095;236;24073;-77
2023/04/02 02:09:28;;;;;;;2.23;1.30;;;2.00;99.90;1.20;99993;;;;596670;236;24078;-76
2023/04/02 02:11:56;;;;;;;2.33;1.17;;;2.00;99.90;1.20;99985;;;;606499;236;24112;-78
2023/04/02 02:14:27;;;;;;;5.43;1.77;;;2.00;99.90;1.20;99989;;;;607581;235;24043;-75
2023/04/02 02:16:55;;;;;;;2.80;1.20;;;2.10;99.90;1.20;99993;;;;606334;232;24037;-76
2023/04/02 02:19:26;;;;;;;2.67;1.23;;;2.10;99.90;1.30;99992;;;;605747;236;24117;-79
2023/04/02 02:21:55;;;;;;;2.03;1.47;;;2.20;99.90;1.30;99996;;;;605325;236;24045;-76
2023/04/02 02:24:29;;;;;;;3.10;1.30;;;2.20;99.90;1.30;99995;;;;605625;236;24026;-76
2023/04/02 02:27:05;;;;;;;3.80;1.40;;;2.20;99.90;1.40;100007;;;;606244;236;24036;-76
2023/04/02 02:29:34;;;;;;;2.87;1.07;;;2.20;99.90;1.30;100013;;;;604989;236;24077;-75
2023/04/02 02:32:02;;;;;;;7.13;1.40;;;2.20;99.90;1.40;100008;;;;606115;236;24084;-76
2023/04/02 02:34:30;;;;;;;1.33;1.20;;;2.30;99.90;1.40;100022;;;;606231;236;24064;-75
2023/04/02 02:37:12;;;;;;;2.10;1.33;;;2.30;99.90;1.40;100005;;;;603857;236;24034;-75
2023/04/02 02:39:43;;;;;;;0.93;0.90;;;2.30;99.90;1.50;100013;;;;606909;232;24051;-76
2023/04/02 02:42:13;;;;;;;1.47;1.07;;;2.40;99.90;1.50;100015;;;;606034;236;24054;-75
2023/04/02 02:44:42;;;;;;;2.03;1.17;;;2.50;99.90;1.60;100022;;;;605784;236;24056;-75
2023/04/02 02:47:21;;;;;;;0.83;0.83;;;2.40;99.90;1.50;100029;;;;605371;236;24107;-75
2023/04/02 02:49:49;;;;;;;2.70;1.27;;;2.40;99.90;1.60;100014;;;;596248;236;24053;-75
2023/04/02 02:52:36;;;;;;;1.00;0.90;;;2.50;99.90;1.60;100024;;;;605471;236;24080;-76
2023/04/02 02:55:13;;;;;;;1.60;1.10;;;2.50;99.90;1.60;100020;;;;606585;235;25084;-76
2023/04/02 02:57:46;;;;;;;2.27;0.97;;;2.50;99.90;1.60;100026;;;;606593;236;24114;-77
2023/04/02 03:00:16;;;;;;;0.67;0.63;;;2.50;99.90;1.60;100038;;;;606738;236;24032;-76
2023/04/02 03:02:42;;;;;;;0.73;0.70;;;2.50;99.90;1.60;100041;;;;597322;236;24091;-77
2023/04/02 03:05:10;;;;;;;1.00;0.70;;;2.50;99.90;1.70;100037;;;;606390;236;24035;-78
2023/04/02 03:07:39;;;;;;;3.63;0.93;;;2.50;99.90;1.70;100046;;;;605680;236;25139;-81
2023/04/02 03:10:10;;;;;;;1.73;0.63;;;2.60;99.90;1.60;100038;;;;606439;236;24066;-82
2023/04/02 03:12:50;;;;;;;1.80;0.77;;;2.60;99.90;1.70;100042;;;;606114;236;24035;-75
2023/04/02 03:15:32;;;;;;;0.70;0.70;;;2.60;99.90;1.70;100056;;;;596374;236;24055;-77
2023/04/02 03:18:03;;;;;;;0.97;0.77;;;2.60;99.90;1.70;100058;;;;594959;236;24033;-81
2023/04/02 03:20:31;;;;;;;2.67;1.07;;;2.60;99.90;1.70;100048;;;;606123;236;24048;-81
2023/04/02 03:23:05;;;;;;;1.43;0.37;;;2.60;99.90;1.70;100059;;;;606334;236;24037;-81
2023/04/02 03:25:36;;;;;;;3.40;0.70;;;2.60;99.90;1.70;100064;;;;596143;236;24051;-82
2023/04/02 03:28:06;;;;;;;6.27;1.03;;;2.60;99.90;1.70;100066;;;;605514;236;24097;-76
2023/04/02 03:30:36;;;;;;;3.13;0.87;;;2.60;99.90;1.80;100062;;;;596248;236;24152;-76
2023/04/02 03:33:05;;;;;;;4.13;0.90;;;2.60;99.90;1.80;100069;;;;596450;236;24068;-76
2023/04/02 03:35:37;;;;;;;0.50;0.50;;;2.70;99.90;1.80;100075;;;;605274;236;24070;-76
2023/04/02 03:38:11;;;;;;;2.23;1.10;;;2.70;99.90;1.70;100066;;;;584733;236;24052;-80
2023/04/02 03:40:42;;;;;;;2.40;1.30;;;2.60;99.90;1.70;100092;;;;606824;236;24084;-81
2023/04/02 03:43:25;;;;;;;4.33;0.90;;;2.60;99.90;1.70;100099;;;;604796;236;24092;-77
2023/04/02 03:46:05;;;;;;;0.50;0.50;;;2.60;99.90;1.60;100082;;;;605805;236;24135;-81
2023/04/02 03:48:42;;;;;;;0.57;0.50;;;2.60;99.90;1.70;100085;;;;606443;236;24110;-78
2023/04/02 03:51:47;;;;;;;4.07;0.87;;;2.50;99.90;1.70;100098;;;;605071;236;24060;-75
2023/04/02 03:54:15;;;;;;;0.90;0.70;;;2.60;99.90;1.70;100102;;;;605879;236;24036;-78
2023/04/02 03:56:46;;;;;;;3.00;0.97;;;2.60;99.90;1.60;100110;;;;596345;236;24062;-76
2023/04/02 03:59:15;;;;;;;2.03;1.03;;;2.60;99.90;1.70;100108;;;;595646;236;24059;-76
2023/04/02 04:01:43;;;;;;;0.97;0.80;;;2.50;99.90;1.70;100132;;;;602371;236;24041;-76
2023/04/02 04:04:10;;;;;;;4.37;1.10;;;2.60;99.90;1.70;100123;;;;605367;236;24045;-76
2023/04/02 04:06:38;;;;;;;0.60;0.60;;;2.60;99.90;1.70;100129;;;;606120;235;24147;-76
2023/04/02 04:09:33;;;;;;;0.70;0.70;;;2.60;99.90;1.60;100127;;;;606935;236;24058;-76
2023/04/02 04:12:25;;;;;;;7.53;0.83;;;2.50;99.90;1.60;100143;;;;597225;236;24039;-76
2023/04/02 04:14:59;;;;;;;0.90;0.90;;;2.50;99.90;1.60;100144;;;;597560;236;24044;-77
2023/04/02 04:17:50;;;;;;;1.20;0.73;;;2.50;99.90;1.60;100162;;;;595210;236;24044;-80
2023/04/02 04:20:21;;;;;;;5.20;0.80;;;2.60;99.90;1.60;100155;;;;601087;236;24113;-81
2023/04/02 04:22:54;;;;;;;4.70;0.83;;;2.50;99.90;1.60;100172;;;;606220;232;24035;-80
2023/04/02 04:25:32;;;;;;;1.30;0.87;;;2.50;99.90;1.70;100156;;;;596894;236;24051;-80
2023/04/02 04:28:10;;;;;;;3.28;1.30;;;2.60;99.90;1.70;100169;;;;590783;236;34977;-80
2023/04/02 04:30:41;;;;;;;1.13;1.03;;;2.60;99.90;1.70;100170;;;;600441;236;24051;-82
2023/04/02 04:33:05;;;;;;;0.80;0.80;;;2.60;99.90;1.70;100164;;;;604039;236;24135;-76
2023/04/02 04:35:39;;;;;;;0.97;0.57;;;2.60;99.90;1.70;100206;;;;605491;236;24071;-76
2023/04/02 04:38:13;;;;;;;3.03;1.33;;;2.60;99.90;1.70;100172;;;;605129;236;24124;-77
2023/04/02 04:40:51;;;;;;;6.17;1.20;;;2.60;99.90;1.70;100164;;;;603769;236;24063;-76
2023/04/02 04:43:14;;;;;;;7.23;0.80;;;2.60;99.90;1.70;100170;;;;596088;236;24052;-76
2023/04/02 04:45:47;;;;;;;1.50;1.40;;;2.60;99.90;1.70;100190;;;;605466;236;25126;-76
2023/04/02 04:48:21;;;;;;;1.60;0.70;;;2.60;99.90;1.70;100192;;;;605583;236;24077;-75
2023/04/02 04:50:58;;;;;;;1.57;1.20;;;2.70;99.90;1.70;100190;;;;605757;236;24032;-78
2023/04/02 04:53:26;;;;;;;1.43;0.87;;;2.70;99.90;1.80;100198;;;;595003;236;24051;-76
2023/04/02 04:56:00;;;;;;;2.20;1.37;;;2.70;99.90;1.80;100204;;;;605874;236;25138;-77
2023/04/02 04:58:42;;;;;;;0.73;0.73;;;2.70;99.90;1.80;100199;;;;595237;236;24080;-77
2023/04/02 05:01:34;;;;;;;2.30;0.80;;;2.70;99.90;1.90;100201;;;;595132;236;24101;-77
2023/04/02 05:04:29;;;;;;;4.47;1.23;;;2.70;99.90;1.80;100215;;;;596748;236;25085;-76
2023/04/02 05:07:13;;;;;;;2.30;1.13;;;2.70;99.90;1.80;100203;;;;605517;236;24049;-77
2023/04/02 05:10:27;;;;;;;2.53;1.30;;;2.70;99.90;1.90;100221;;;;605260;236;24056;-77
2023/04/02 05:12:55;;;;;;;3.47;1.53;;;2.70;99.90;1.90;100231;;;;596348;236;24133;-80
2023/04/02 05:15:32;;;;;;;2.80;1.23;;;2.70;99.90;1.90;100221;;;;605473;236;24040;-78
2023/04/02 05:18:25;;;;;;;1.73;1.40;;;2.80;99.90;1.90;100229;;;;606359;235;24083;-76
2023/04/02 05:21:11;;;;;;;1.80;1.50;;;2.70;99.90;1.90;100235;;;;606793;236;24032;-77
2023/04/02 05:23:44;;;;;;;2.23;1.07;;;2.80;99.90;1.90;100242;;;;597417;236;24084;-76
2023/04/02 05:26:21;;;;;;;2.57;0.90;;;2.80;99.90;1.90;100236;;;;607101;236;24031;-78
2023/04/02 05:29:20;;;;;;;2.03;1.20;;;2.80;99.90;1.90;100252;;;;605936;236;24135;-76
2023/04/02 05:31:47;;;;;;;3.70;1.30;;;2.80;99.90;2.00;100257;;;;597266;236;25178;-77
2023/04/02 05:34:15;;;;;;;2.23;1.30;;;2.90;99.90;2.00;100263;;;;603218;236;24052;-77
2023/04/02 05:36:43;;;;;;;3.80;1.17;;;2.90;99.90;2.00;100270;;;;605220;236;24090;-77
2023/04/02 05:39:14;;;;;;;3.20;1.47;;;2.90;99.90;2.00;100261;;;;606056;236;25114;-76
2023/04/02 05:41:40;;;;;;;1.10;1.00;;;2.90;99.90;2.00;100278;;;;596827;236;24066;-79
2023/04/02 05:44:08;;;;;;;2.20;1.35;;;2.90;99.90;2.10;100259;;;;600744;236;34947;-82
2023/04/02 05:46:45;;;;;;;1.10;0.77;;;2.90;99.90;2.00;100264;;;;600422;235;24046;-80
2023/04/02 05:49:18;;;;;;;0.33;0.33;;;2.90;99.90;2.10;100266;;;;596593;236;24035;-81
2023/04/02 05:51:46;;;;;;;1.43;1.27;;;2.90;99.90;2.10;100305;;;;604547;236;25088;-80
2023/04/02 05:54:29;;;;;;;2.10;0.67;;;2.90;99.90;2.10;100290;;;;605866;236;24045;-81
2023/04/02 05:57:03;;;;;;;2.43;1.50;;;3.00;99.90;2.10;100293;;;;604242;236;24181;-81
2023/04/02 05:59:34;;;;;;;2.10;1.27;;;3.00;99.90;2.10;100310;;;;605608;236;24083;-79
2023/04/02 06:02:06;;;;;;;1.37;1.23;;;3.00;99.90;2.10;100297;;;;605470;236;24057;-80
2023/04/02 06:04:42;;;;;;;2.87;1.23;;;3.00;99.90;2.10;100295;;;;595585;236;24076;-79
2023/04/02 06:07:26;;;;;;;3.60;1.20;;;3.00;99.90;2.10;100302;;;;605923;233;24118;-82
2023/04/02 06:09:56;;;;;;;3.00;1.40;;;3.00;99.90;2.10;100316;;;;605154;236;24045;-78
2023/04/02 06:12:25;;;;;;;3.60;0.93;;;3.00;99.90;2.20;100322;;;;605662;233;24051;-80
2023/04/02 06:14:53;;;;;;;1.53;0.90;;;3.00;99.90;2.20;100320;;;;594861;236;24056;-76
2023/04/02 06:17:21;;;;;;;1.13;0.80;;;3.00;99.90;2.20;100326;;;;605802;236;24073;-79
2023/04/02 06:19:49;;;;;;;5.17;1.10;;;3.10;99.90;2.20;100343;;;;596452;236;24070;-78
2023/04/02 06:22:35;;;;;;;1.00;1.00;;;3.00;99.90;2.20;100342;;;;605647;236;24077;-76
2023/04/02 06:25:05;;;;;;;1.97;1.13;;;3.00;99.90;2.30;100323;;;;605848;236;24049;-78
2023/04/02 06:27:34;;;;;;;1.70;0.57;;;3.20;99.90;2.30;100340;;;;596885;236;24061;-78
2023/04/02 06:30:02;;;;;;;0.57;0.57;;;3.10;99.90;2.20;100347;;;;606922;235;24096;-77
2023/04/02 06:32:30;;;;;;;1.07;0.63;;;3.10;99.90;2.30;100358;;;;606962;236;24033;-80
2023/04/02 06:34:58;;;;;;;0.80;0.80;;;3.20;99.90;2.30;100351;;;;597400;236;24080;-81
2023/04/02 06:37:28;;;;;;;1.17;1.07;;;3.20;99.90;2.40;100352;;;;606764;236;24072;-77
2023/04/02 06:39:59;;;;;;;1.23;0.80;;;3.20;99.90;2.40;100364;;;;606044;236;24049;-76
2023/04/02 06:42:36;;;;;;;2.33;1.40;;;3.30;99.90;2.50;100368;;;;596520;236;24109;-77
2023/04/02 06:45:04;;;;;;;2.33;1.10;;;3.30;99.90;2.50;100365;;;;606812;236;24064;-77
2023/04/02 06:47:41;;;;;;;2.13;0.50;;;3.50;99.90;2.60;100376;;;;596786;236;24079;-76
2023/04/02 06:50:18;;;;;;;3.40;0.63;;;3.40;99.90;2.60;100379;;;;596864;236;24055;-77
2023/04/02 06:52:50;;;;;;;4.95;1.40;;;3.50;99.90;2.60;100395;;;;590197;236;34926;-77
2023/04/02 06:55:21;;;;;;;1.40;0.90;;;3.50;99.90;2.60;100386;;;;607299;236;24151;-76
2023/04/02 06:57:49;;;;;;;0.67;0.60;;;3.50;99.90;2.60;100392;;;;600316;236;24092;-76
2023/04/02 07:00:38;;;;;;;3.50;0.67;;;3.50;99.90;2.60;100400;;;;596835;236;24028;-76
2023/04/02 07:03:06;;;;;;;1.33;0.70;;;3.50;99.90;2.60;100406;;;;601812;236;25084;-77
2023/04/02 07:05:35;;;;;;;5.27;0.97;;;3.50;99.90;2.70;100397;;;;605769;236;24067;-77
2023/04/02 07:08:03;;;;;;;3.00;0.87;;;3.50;99.90;2.80;100401;;;;596303;236;24158;-76
2023/04/02 07:10:31;;;;;;;0.50;0.50;;;3.70;99.90;3.00;100416;;;;596515;236;24091;-81
2023/04/02 07:13:01;;;;;;;1.70;0.60;;;3.90;99.90;3.30;100406;;;;596390;236;24128;-78
2023/04/02 07:15:29;;;;;;;1.63;1.40;;;4.10;99.90;3.80;100416;;;;596372;236;24066;-83
2023/04/02 07:17:58;;;;;;;0.70;0.70;;;4.60;99.90;4.30;100450;;;;600562;236;24060;-80
2023/04/02 07:20:26;;;;;;;2.93;0.50;;;5.00;99.90;4.30;100433;;;;605948;236;24057;-81
2023/04/02 07:22:53;;;;;;;0.67;0.43;;;5.20;99.90;4.20;100424;;;;605984;236;25114;-81
2023/04/02 07:25:21;;;;;;;0.80;0.80;;;5.10;99.90;4.30;100438;;;;606032;236;24049;-78
2023/04/02 07:27:51;;;;;;;2.87;1.00;;;5.20;99.90;4.20;100456;;;;596886;236;24069;-82
2023/04/02 07:30:17;;;;;;;0.73;0.73;;;5.20;99.90;4.20;100451;;;;606280;232;24048;-79
2023/04/02 07:32:45;;;;;;;1.53;0.60;;;5.10;99.90;4.20;100434;;;;596567;236;24072;-84
2023/04/02 07:35:13;;;;;;;2.00;0.83;;;5.00;99.90;4.10;100445;;;;605960;236;24035;-82
2023/04/02 07:37:41;;;;;;;0.60;0.37;;;5.00;99.90;4.00;100460;;;;596465;236;24055;-76
2023/04/02 07:40:15;;;;;;;0.97;0.97;;;4.90;99.90;4.00;100470;;;;600729;236;24082;-78
2023/04/02 07:42:43;;;;;;;1.00;0.50;;;4.90;99.90;3.90;100455;;;;607079;236;24063;-80
2023/04/02 07:45:11;;;;;;;0.70;0.70;;;4.80;99.90;3.90;100461;;;;597967;236;25118;-78
2023/04/02 07:47:42;;;;;;;6.13;1.33;;;4.80;99.90;3.90;100484;;;;595925;236;24085;-81
2023/04/02 07:50:08;;;;;;;2.77;0.93;;;4.80;99.90;3.80;100478;;;;606436;236;24139;-81
2023/04/02 07:52:44;;;;;;;0.90;0.80;;;4.70;99.90;3.80;100473;;;;592293;236;34879;-82
2023/04/02 07:55:12;;;;;;;5.00;1.40;;;4.70;99.90;3.80;100486;;;;592224;236;34871;-83
2023/04/02 07:57:40;;;;;;;1.03;0.90;;;4.70;99.90;3.80;100526;;;;608058;232;24103;-80
2023/04/02 08:00:14;;;;;;;0.77;0.53;;;4.70;99.90;3.70;100489;;;;596833;236;24101;-79
2023/04/02 08:02:39;;;;;;;4.70;1.17;;;4.60;99.90;3.70;100500;;;;596780;236;24149;-84
2023/04/02 08:05:10;;;;;;;0.70;0.70;;;4.60;99.90;3.70;100499;;;;596823;236;24090;-81
2023/04/02 08:07:38;;;;;;;0.43;0.37;;;4.60;99.90;3.70;100516;;;;596193;236;24140;-79
2023/04/02 08:10:06;;;;;;;0.50;0.50;;;4.50;99.90;3.60;100518;;;;596675;236;24050;-78
2023/04/02 08:12:32;;;;;;;1.70;1.47;;;4.40;99.90;3.50;100517;;;;605914;232;24064;-81
2023/04/02 08:15:00;;;;;;;1.03;0.40;;;4.40;99.90;3.50;100500;;;;596838;236;24033;-80
2023/04/02 08:17:30;;;;;;;0.50;0.50;;;4.40;99.90;3.40;100512;;;;596546;236;24046;-82
2023/04/02 08:19:59;;;;;;;0.60;0.57;;;4.30;99.90;3.50;100527;;;;596466;236;24150;-80
2023/04/02 08:22:24;;;;;;;0.93;0.70;;;4.30;99.90;3.50;100533;;;;596019;236;24046;-77
2023/04/02 08:24:51;;;;;;;1.50;0.87;;;4.40;99.90;3.60;100523;;;;596374;236;24117;-81
2023/04/02 08:27:20;;;;;;;2.57;1.00;;;4.50;99.90;3.70;100527;;;;596508;236;24124;-77
2023/04/02 08:29:51;;;;;;;0.60;0.60;;;4.70;99.90;3.80;100540;;;;596333;236;24060;-76
2023/04/02 08:32:20;;;;;;;1.53;0.40;;;4.60;99.90;3.80;100535;;;;605959;236;24115;-80
2023/04/02 08:34:45;;;;;;;1.97;1.10;;;4.70;99.90;3.80;100527;;;;601437;236;24034;-80
2023/04/02 08:37:13;;;;;;;2.13;0.87;;;4.80;99.90;4.00;100545;;;;596801;236;24052;-75
2023/04/02 08:39:41;;;;;;;1.73;0.60;;;4.80;99.90;4.10;100549;;;;606380;236;24090;-77
2023/04/02 08:42:42;;;;;;;0.87;0.80;;;4.90;99.90;4.10;100561;;;;596808;236;24081;-80
2023/04/02 08:45:20;;;;;;;0.57;0.40;;;5.00;99.90;4.00;100574;;;;600294;236;24060;-81
2023/04/02 08:47:48;;;;;;;0.50;0.50;;;4.90;99.90;4.00;100555;;;;600682;236;24049;-78
2023/04/02 08:50:34;;;;;;;0.57;0.57;;;4.90;99.90;4.10;100569;;;;596801;236;24036;-79
2023/04/02 08:53:03;;;;;;;0.47;0.47;;;5.10;99.90;4.20;100590;;;;607107;235;24112;-77
2023/04/02 08:55:43;;;;;;;3.40;1.07;;;5.00;99.90;4.40;100565;;;;608240;232;24070;-77
2023/04/02 08:58:26;;;;;;;3.20;0.67;;;5.20;99.90;4.70;100579;;;;594894;236;24036;-79
2023/04/02 09:00:53;;;;;;;5.10;1.00;;;5.50;99.90;5.20;100582;;;;596150;236;24122;-77
2023/04/02 09:03:30;;;;;;;4.00;0.33;;;5.90;99.90;5.70;100583;;;;606948;233;24043;-76
2023/04/02 09:06:01;;;;;;;0.97;0.80;;;6.40;99.90;6.10;100615;;;;597208;236;24025;-76
2023/04/02 09:08:26;;;;;;;0.40;0.40;;;6.90;99.90;6.10;100605;;;;596562;236;24079;-76
2023/04/02 09:11:13;;;;;;;4.80;0.80;;;8.10;99.90;7.80;100598;;;;596667;236;24022;-78
2023/04/02 09:13:41;;;;;;;0.50;0.47;;;8.00;99.90;10.20;100626;;;;605536;236;24053;-77
2023/04/02 09:16:15;;;;;;;1.00;0.40;;;10.60;99.90;12.00;100628;;;;606158;236;24092;-79
2023/04/02 09:18:46;;;;;;;0.30;0.30;;;12.50;99.90;13.40;100623;;;;605984;236;24101;-78
2023/04/02 09:21:27;;;;;;;3.70;0.60;;;14.10;97.60;14.70;100648;;;;596570;236;24092;-80
2023/04/02 09:23:54;;;;;;;0.87;0.77;;;15.40;94.00;15.70;100650;;;;605736;236;24047;-77
2023/04/02 09:26:26;;;;;;;4.13;1.27;;;16.70;86.60;16.30;100653;;;;596521;236;24076;-77
2023/04/02 09:28:52;;;;;;;1.10;0.70;;;17.50;77.70;17.20;100642;;;;605784;236;27293;-78
2023/04/02 09:31:23;;;;;;;1.83;0.70;;;18.40;73.80;17.70;100656;;;;606194;236;24036;-78
2023/04/02 09:33:53;;;;;;;1.53;0.83;;;19.30;63.20;17.80;100671;;;;595307;236;24106;-77
2023/04/02 09:36:26;;;;;;;5.03;1.40;;;19.30;63.30;18.20;100671;;;;596695;236;24285;-78
2023/04/02 09:39:05;;;;;;;3.70;0.90;;;19.60;63.30;18.90;100726;;;;605856;236;25134;-78
2023/04/02 09:41:37;;;;;;;1.60;0.90;;;20.50;56.20;18.60;100709;;;;596919;236;23105;-82
2023/04/02 09:44:10;;;;;;;1.27;0.90;;;20.40;56.00;17.70;100724;;;;605861;236;24204;-79
2023/04/02 09:46:38;;;;;;;1.60;1.23;;;19.90;55.20;16.60;100708;;;;605468;236;24065;-78
2023/04/02 09:49:06;;;;;;;0.80;0.50;;;18.90;57.30;16.10;100714;;;;605725;236;24091;-80
2023/04/02 09:51:35;;;;;;;3.83;0.90;;;18.30;57.30;15.90;100706;;;;605945;236;24029;-82
2023/04/02 09:54:02;;;;;;;1.20;1.10;;;17.70;60.30;16.90;100710;;;;596726;236;24097;-82
2023/04/02 09:56:33;;;;;;;2.83;2.50;;;18.20;59.20;17.80;100703;;;;601844;236;23071;-83
2023/04/02 09:59:14;;;;;;;0.83;0.70;;;19.00;58.00;18.40;100750;;;;596172;236;24107;-83
2023/04/02 10:01:47;;;;;;;3.23;0.97;;;19.80;55.80;18.40;100742;;;;605874;236;24079;-83
2023/04/02 10:04:46;;;;;;;2.73;0.80;;;20.00;54.00;18.60;100762;;;;605988;235;23066;-85
2023/04/02 10:07:43;;;;;;;1.83;0.80;;;20.30;53.90;17.70;100763;;;;598038;236;24175;-80
2023/04/02 10:10:30;;;;;;;1.47;1.00;;;19.90;52.30;17.50;100748;;;;607182;232;23042;-80
2023/04/02 10:13:02;;;;;;;2.30;0.80;;;19.60;52.10;17.30;100758;;;;596297;236;24096;-80
2023/04/02 10:15:39;;;;;;;0.70;0.70;;;19.00;53.00;17.00;100760;;;;595531;236;24090;-83
2023/04/02 10:18:07;;;;;;;3.30;1.03;;;18.90;53.00;15.50;100771;;;;595423;236;24034;-84
2023/04/02 10:20:36;;;;;;;0.77;0.77;;;17.90;53.30;14.20;100757;;;;606184;236;24056;-76
2023/04/02 10:23:03;;;;;;;0.60;0.60;;;16.40;56.40;12.40;100782;;;;607386;236;24036;-78
2023/04/02 10:25:31;;;;;;;1.47;1.00;;;14.60;58.20;10.80;100776;;;;597026;236;24056;-78
2023/04/02 10:28:23;;;;;;;2.87;0.70;;;12.80;62.30;9.50;100769;;;;606334;236;24040;-78
2023/04/02 10:31:03;;;;;;;3.30;1.63;;;11.30;65.60;8.50;100765;;;;597265;236;24076;-77
2023/04/02 10:33:31;;;;;;;0.67;0.40;;;10.00;69.10;7.80;100776;;;;607785;236;24074;-78
2023/04/02 10:36:26;;;;;;;1.87;0.40;;;9.10;73.70;7.00;100794;;;;596933;236;24033;-79
2023/04/02 10:39:07;;;;;;;3.83;0.90;;;7.70;80.80;6.60;100780;;;;591703;236;34836;-76
2023/04/02 10:41:58;;;;;;;1.70;0.90;;;7.70;80.00;6.30;100789;;;;594969;237;24035;-76
2023/04/02 10:44:41;;;;;;;1.40;0.93;;;7.30;82.50;5.80;100782;;;;596514;236;24105;-77
2023/04/02 10:47:21;;;;;;;0.47;0.33;;;6.80;84.90;5.40;100782;;;;605846;236;24088;-76
2023/04/02 10:50:03;;;;;;;1.17;0.50;;;6.40;88.30;5.10;100796;;;;596543;236;24050;-77
2023/04/02 10:52:33;;;;;;;1.97;0.50;;;6.10;90.30;4.80;100788;;;;594022;241;24117;-80
2023/04/02 10:55:17;;;;;;;1.03;0.90;;;5.60;92.40;4.70;100805;;;;585532;241;24090;-81
2023/04/02 10:57:45;;;;;;;0.83;0.67;;;5.60;92.40;4.50;100824;;;;584958;241;25111;-80
2023/04/02 11:00:15;;;;;;;2.10;0.90;;;5.40;94.00;4.30;100807;;;;596674;236;24051;-81
2023/04/02 11:03:06;;;;;;;0.60;0.50;;;5.30;94.40;4.10;100800;;;;589898;241;24096;-82
2023/04/02 11:05:46;;;;;;;1.97;0.83;;;5.10;94.50;3.90;100813;;;;594904;237;24076;-79
2023/04/02 11:08:28;;;;;;;1.27;0.70;;;4.80;96.10;3.80;100846;;;;596007;237;24037;-78
2023/04/02 11:11:12;;;;;;;3.30;1.23;;;4.50;98.70;3.60;100851;;;;585134;241;24053;-83
2023/04/02 11:13:58;;;;;;;3.03;1.37;;;4.50;98.70;3.50;100838;;;;594669;241;24115;-81
2023/04/02 11:16:26;;;;;;;3.13;0.97;;;4.40;99.70;3.40;100829;;;;586593;240;24246;-78
2023/04/02 11:19:09;;;;;;;1.70;1.20;;;4.30;99.90;3.40;100836;;;;592044;238;24052;-79
2023/04/02 11:21:40;;;;;;;2.10;1.17;;;4.30;99.90;3.40;100845;;;;593081;239;24047;-77
2023/04/02 11:24:30;;;;;;;1.80;1.40;;;4.30;99.90;3.40;100835;;;;589470;239;24039;-75
2023/04/02 11:27:15;;;;;;;2.43;1.00;;;4.30;99.90;3.60;100825;;;;600397;237;24043;-78
2023/04/02 11:29:55;;;;;;;2.97;1.20;;;4.40;99.90;3.60;100830;;;;591269;239;24048;-78
2023/04/02 11:32:24;;;;;;;2.37;1.77;;;4.40;99.90;3.60;100852;;;;601403;238;24095;-83
2023/04/02 11:34:52;;;;;;;3.40;1.13;;;4.40;99.90;3.50;100850;;;;591574;239;24066;-79
2023/04/02 11:37:34;;;;;;;1.10;0.60;;;4.40;99.90;3.50;100864;;;;591198;239;24042;-76
2023/04/02 11:40:12;;;;;;;3.13;1.00;;;4.40;99.90;3.40;100893;;;;589254;239;24069;-83
2023/04/02 11:42:41;;;;;;;5.17;1.23;;;4.30;99.90;3.40;100864;;;;601010;235;24040;-77
2023/04/02 11:45:27;;;;;;;4.63;1.20;;;4.20;99.90;3.40;100864;;;;590571;239;24054;-80
2023/04/02 11:48:07;;;;;;;1.77;0.80;;;4.20;99.90;3.40;100869;;;;591079;239;24044;-82
2023/04/02 11:50:39;;;;;;;7.07;1.30;;;4.30;99.90;3.50;100863;;;;591383;237;24061;-83
2023/04/02 11:53:16;;;;;;;2.40;1.23;;;4.30;99.90;3.50;100861;;;;588551;239;24047;-82
2023/04/02 11:55:43;;;;;;;3.23;0.80;;;4.30;99.90;3.40;100873;;;;590842;239;24051;-82